createdAt,value
2023-05-09T00:01:38.020Z,0.40
2023-05-09T00:04:06.299Z,0.40
2023-05-09T00:06:33.725Z,0.30
2023-05-09T00:09:03.273Z,0.40
2023-05-09T00:11:30.318Z,0.43
2023-05-09T00:14:02.020Z,0.30
2023-05-09T00:16:29.085Z,0.30
2023-05-09T00:18:58.209Z,0.20
2023-05-09T00:21:28.352Z,0.20
2023-05-09T00:23:55.952Z,0.20
2023-05-09T00:26:23.391Z,0.30
2023-05-09T00:28:50.337Z,0.13
2023-05-09T00:31:17.484Z,0.20
2023-05-09T00:33:44.678Z,0.20
2023-05-09T00:36:11.687Z,0.17
2023-05-09T00:38:38.643Z,0.30
2023-05-09T00:41:05.732Z,0.10
2023-05-09T00:43:34.680Z,0.20
2023-05-09T00:46:03.045Z,0.20
2023-05-09T00:48:30.122Z,0.10
2023-05-09T00:50:57.332Z,0.20
2023-05-09T00:53:24.744Z,0.10
2023-05-09T00:55:51.846Z,0.10
2023-05-09T00:58:24.955Z,0.10
2023-05-09T01:00:51.954Z,0.10
2023-05-09T01:03:19.093Z,0.10
2023-05-09T01:05:59.930Z,0.10
2023-05-09T01:08:51.361Z,0.10
2023-05-09T01:11:32.943Z,0.10
2023-05-09T01:14:26.078Z,0.10
2023-05-09T01:17:05.891Z,0.10
2023-05-09T01:19:41.592Z,0.40
2023-05-09T01:22:17.896Z,0.20
2023-05-09T01:25:06.026Z,0.10
2023-05-09T01:28:12.983Z,0.20
2023-05-09T01:30:40.005Z,0.20
2023-05-09T01:33:07.802Z,0.20
2023-05-09T01:35:39.153Z,0.22
2023-05-09T01:38:22.210Z,0.32
2023-05-09T01:40:50.669Z,0.25
2023-05-09T01:43:18.286Z,0.30
2023-05-09T01:45:45.871Z,0.30
2023-05-09T01:48:12.842Z,0.40
2023-05-09T01:50:39.813Z,0.22
2023-05-09T01:53:07.318Z,0.30
2023-05-09T01:55:37.018Z,0.30
2023-05-09T01:58:05.310Z,0.30
2023-05-09T02:00:35.785Z,0.40
2023-05-09T02:03:08.160Z,0.30
2023-05-09T02:05:36.422Z,0.40
2023-05-09T02:08:04.209Z,0.22
2023-05-09T02:10:31.608Z,0.30
2023-05-09T02:12:58.844Z,0.20
2023-05-09T02:15:26.412Z,0.25
2023-05-09T02:17:53.752Z,0.30
2023-05-09T02:20:21.031Z,0.30
2023-05-09T02:22:48.134Z,0.30
2023-05-09T02:25:18.694Z,0.52
2023-05-09T02:27:46.655Z,0.30
2023-05-09T02:30:30.856Z,0.38
2023-05-09T02:33:00.119Z,0.40
2023-05-09T02:35:30.354Z,0.30
2023-05-09T02:38:01.904Z,0.40
2023-05-09T02:40:29.746Z,0.50
2023-05-09T02:42:57.259Z,0.30
2023-05-09T02:45:26.723Z,0.45
2023-05-09T02:47:53.793Z,0.40
2023-05-09T02:50:20.868Z,0.52
2023-05-09T02:52:47.887Z,0.47
2023-05-09T02:55:16.453Z,0.50
2023-05-09T02:57:44.169Z,0.40
2023-05-09T03:00:12.335Z,0.50
2023-05-09T03:02:42.472Z,0.50
2023-05-09T03:05:09.835Z,0.40
2023-05-09T03:07:37.135Z,0.47
2023-05-09T03:10:04.379Z,0.70
2023-05-09T03:12:31.321Z,0.50
2023-05-09T03:14:58.215Z,0.50
2023-05-09T03:17:25.887Z,0.52
2023-05-09T03:19:52.988Z,0.60
2023-05-09T03:22:40.561Z,0.60
2023-05-09T03:25:10.757Z,0.60
2023-05-09T03:27:45.637Z,0.60
2023-05-09T03:30:13.116Z,0.70
2023-05-09T03:32:40.095Z,0.40
2023-05-09T03:35:07.642Z,0.50
2023-05-09T03:37:34.670Z,0.32
2023-05-09T03:40:04.035Z,0.40
2023-05-09T03:42:31.107Z,0.30
2023-05-09T03:44:58.581Z,0.30
2023-05-09T03:47:36.142Z,0.40
2023-05-09T03:50:06.173Z,0.40
2023-05-09T03:52:35.403Z,0.40
2023-05-09T03:55:02.322Z,0.60
2023-05-09T03:57:29.293Z,0.40
2023-05-09T03:59:56.130Z,0.47
2023-05-09T04:02:26.645Z,0.55
2023-05-09T04:04:53.599Z,0.60
2023-05-09T04:07:20.853Z,0.50
2023-05-09T04:09:47.895Z,1.00
2023-05-09T04:12:14.765Z,0.70
2023-05-09T04:14:41.630Z,0.73
2023-05-09T04:17:08.712Z,0.73
2023-05-09T04:19:35.857Z,0.90
2023-05-09T04:22:02.806Z,0.90
2023-05-09T04:24:29.781Z,1.10
2023-05-09T04:26:57.070Z,1.00
2023-05-09T04:29:23.953Z,1.10
2023-05-09T04:31:51.045Z,1.05
2023-05-09T04:34:18.299Z,1.10
2023-05-09T04:36:45.206Z,1.08
2023-05-09T04:42:57.630Z,1.35
2023-05-09T04:45:27.584Z,1.60
2023-05-09T04:47:54.662Z,1.52
2023-05-09T04:50:21.583Z,1.40
2023-05-09T04:52:48.492Z,1.55
2023-05-09T04:55:15.794Z,1.83
2023-05-09T04:57:42.958Z,2.00
2023-05-09T05:00:11.960Z,1.83
2023-05-09T05:02:39.137Z,1.95
2023-05-09T05:05:12.180Z,1.60
2023-05-09T05:07:39.761Z,1.42
2023-05-09T05:10:08.404Z,1.83
2023-05-09T05:12:38.390Z,2.10
2023-05-09T05:15:05.927Z,2.00
2023-05-09T05:17:33.437Z,2.47
2023-05-09T05:20:00.502Z,2.60
2023-05-09T05:22:32.683Z,2.17
2023-05-09T05:25:02.073Z,2.67
2023-05-09T05:27:29.059Z,2.10
2023-05-09T05:29:56.125Z,2.45
2023-05-09T05:32:23.100Z,2.40
2023-05-09T05:34:50.093Z,3.05
2023-05-09T05:37:16.985Z,2.50
2023-05-09T05:39:43.861Z,2.28
2023-05-09T05:42:10.677Z,2.47
2023-05-09T05:44:41.007Z,2.83
2023-05-09T05:47:08.138Z,2.42
2023-05-09T05:49:44.299Z,2.90
2023-05-09T05:52:11.261Z,2.70
2023-05-09T05:54:44.449Z,2.38
2023-05-09T05:57:21.843Z,2.55
2023-05-09T06:00:29.173Z,2.95
2023-05-09T06:03:14.749Z,2.85
2023-05-09T06:06:02.340Z,3.17
2023-05-09T06:09:06.202Z,3.45
2023-05-09T06:12:13.925Z,3.60
2023-05-09T06:23:03.586Z,3.55
2023-05-09T06:29:35.765Z,2.97
2023-05-09T06:32:02.998Z,3.13
2023-05-09T06:35:01.490Z,3.78
2023-05-09T06:37:31.142Z,3.92
2023-05-09T06:39:58.458Z,3.80
2023-05-09T06:42:31.066Z,3.60
2023-05-09T06:44:58.191Z,3.85
2023-05-09T06:47:25.247Z,3.22
2023-05-09T06:49:52.442Z,3.70
2023-05-09T06:52:22.555Z,3.53
2023-05-09T06:54:49.771Z,4.00
2023-05-09T06:57:17.245Z,4.22
2023-05-09T06:59:45.054Z,3.78
2023-05-09T07:02:12.565Z,3.50
2023-05-09T07:04:42.896Z,3.72
2023-05-09T07:07:10.064Z,3.50
2023-05-09T07:09:37.482Z,3.35
2023-05-09T07:12:04.730Z,3.25
2023-05-09T07:14:34.404Z,3.55
2023-05-09T07:17:24.196Z,2.83
2023-05-09T07:19:54.435Z,3.40
2023-05-09T07:22:22.149Z,3.25
2023-05-09T07:24:51.769Z,3.63
2023-05-09T07:27:23.825Z,3.55
2023-05-09T07:29:59.185Z,3.65
2023-05-09T07:32:28.998Z,3.30
2023-05-09T07:34:56.589Z,3.20
2023-05-09T07:37:39.371Z,3.40
2023-05-09T07:40:10.449Z,3.20
2023-05-09T07:42:42.788Z,3.08
2023-05-09T07:45:16.303Z,3.22
2023-05-09T07:52:16.888Z,2.55
2023-05-09T07:54:44.956Z,3.47
2023-05-09T07:57:19.803Z,3.38
2023-05-09T07:59:52.480Z,3.03
2023-05-09T08:02:21.907Z,2.95
2023-05-09T08:04:54.485Z,3.05
2023-05-09T08:07:24.558Z,3.40
2023-05-09T08:09:56.760Z,3.78
2023-05-09T08:15:35.790Z,3.20
2023-05-09T08:18:03.139Z,2.70
2023-05-09T08:20:36.419Z,2.33
2023-05-09T08:23:03.412Z,2.00
2023-05-09T08:25:33.847Z,1.92
2023-05-09T08:28:03.662Z,2.45
2023-05-09T08:30:33.763Z,2.17
2023-05-09T08:33:00.893Z,1.80
2023-05-09T08:35:39.548Z,2.50
2023-05-09T08:38:13.003Z,3.88
2023-05-09T08:40:41.672Z,2.53
2023-05-09T08:43:13.798Z,2.00
2023-05-09T08:45:49.126Z,2.13
2023-05-09T08:48:17.097Z,1.58
2023-05-09T08:50:46.806Z,1.67
2023-05-09T08:53:17.079Z,1.60
2023-05-09T08:55:44.485Z,1.83
2023-05-09T08:58:18.476Z,1.73
2023-05-09T09:03:15.024Z,1.30
2023-05-09T09:05:46.312Z,1.25
2023-05-09T09:08:17.169Z,1.45
2023-05-09T09:10:49.998Z,1.38
2023-05-09T09:13:26.871Z,1.38
2023-05-09T09:15:56.774Z,1.30
2023-05-09T09:18:28.535Z,1.20
2023-05-09T09:21:12.389Z,1.40
2023-05-09T09:23:40.848Z,0.85
2023-05-09T09:26:13.484Z,1.50
2023-05-09T09:28:40.577Z,1.40
2023-05-09T09:31:21.404Z,1.60
2023-05-09T09:33:50.969Z,1.90
2023-05-09T09:36:28.555Z,1.50
2023-05-09T09:39:04.875Z,1.20
2023-05-09T09:41:36.501Z,1.48
2023-05-09T09:44:13.764Z,1.10
2023-05-09T09:46:58.847Z,1.08
2023-05-09T09:49:26.978Z,0.95
2023-05-09T09:51:57.587Z,1.10
2023-05-09T09:54:27.860Z,1.20
2023-05-09T09:56:55.194Z,0.82
2023-05-09T09:59:33.066Z,1.23
2023-05-09T10:02:04.182Z,1.20
2023-05-09T10:04:35.485Z,0.80
2023-05-09T10:07:11.076Z,1.00
2023-05-09T10:09:39.796Z,0.90
2023-05-09T10:12:10.418Z,0.95
2023-05-09T10:14:40.316Z,0.95
2023-05-09T10:17:07.508Z,0.90
2023-05-09T10:19:40.785Z,1.08
2023-05-09T10:22:14.876Z,0.80
2023-05-09T10:25:13.219Z,0.88
2023-05-09T10:27:45.156Z,0.80
2023-05-09T10:30:18.598Z,0.73
2023-05-09T10:32:54.958Z,1.00
2023-05-09T10:35:37.178Z,0.60
2023-05-09T10:38:07.023Z,0.60
2023-05-09T10:40:36.347Z,1.00
2023-05-09T10:43:03.393Z,1.20
2023-05-09T10:45:33.804Z,1.30
2023-05-09T10:48:01.802Z,1.33
2023-05-09T10:50:28.941Z,1.00
2023-05-09T10:53:08.930Z,0.98
2023-05-09T10:55:53.035Z,1.10
2023-05-09T10:58:28.625Z,0.70
2023-05-09T11:01:02.433Z,0.80
2023-05-09T11:03:48.473Z,0.80
2023-05-09T11:06:49.387Z,0.60
2023-05-09T11:09:28.972Z,0.70
2023-05-09T11:12:01.828Z,0.70
2023-05-09T11:14:41.828Z,0.80
2023-05-09T11:17:18.266Z,0.75
2023-05-09T11:19:48.326Z,1.00
2023-05-09T11:22:42.734Z,0.82
2023-05-09T11:25:14.225Z,0.70
2023-05-09T11:27:53.781Z,0.80
2023-05-09T11:30:20.823Z,0.70
2023-05-09T11:32:52.459Z,0.70
2023-05-09T11:35:21.864Z,0.60
2023-05-09T11:37:49.953Z,0.63
2023-05-09T11:40:23.208Z,0.68
2023-05-09T11:42:55.491Z,1.15
2023-05-09T11:48:47.815Z,0.80
2023-05-09T11:52:08.657Z,1.00
2023-05-09T11:54:39.120Z,0.90
2023-05-09T11:57:10.371Z,0.80
2023-05-09T11:59:37.369Z,0.80
2023-05-09T12:02:07.939Z,0.88
2023-05-09T12:04:35.279Z,1.00
2023-05-09T12:07:03.936Z,1.02
2023-05-09T12:09:34.006Z,0.80
2023-05-09T12:12:01.340Z,0.82
2023-05-09T12:14:35.205Z,1.30
2023-05-09T12:17:02.242Z,0.98
2023-05-09T12:19:31.618Z,1.00
2023-05-09T12:22:01.220Z,1.00
2023-05-09T12:24:28.881Z,1.20
2023-05-09T12:26:56.639Z,1.00
2023-05-09T12:29:24.237Z,1.13
2023-05-09T12:31:52.376Z,1.00
2023-05-09T12:34:23.301Z,1.38
2023-05-09T12:36:53.769Z,1.00
2023-05-09T12:39:24.620Z,0.93
2023-05-09T12:42:00.993Z,0.80
2023-05-09T12:44:30.022Z,1.00
2023-05-09T12:46:58.358Z,1.10
2023-05-09T12:49:25.657Z,0.90
2023-05-09T12:51:57.981Z,1.25
2023-05-09T12:54:29.306Z,1.20
2023-05-09T12:56:59.166Z,1.00
2023-05-09T12:59:27.203Z,1.20
2023-05-09T13:01:57.535Z,1.30
2023-05-09T13:04:25.466Z,1.20
2023-05-09T13:06:55.539Z,1.13
2023-05-09T13:09:23.476Z,1.17
2023-05-09T13:11:51.285Z,1.20
2023-05-09T13:14:23.535Z,1.15
2023-05-09T13:16:52.970Z,1.20
2023-05-09T13:19:19.952Z,0.98
2023-05-09T13:21:46.791Z,1.17
2023-05-09T13:24:14.966Z,1.08
2023-05-09T13:26:45.162Z,1.42
2023-05-09T13:29:12.180Z,1.30
2023-05-09T13:31:39.438Z,1.27
2023-05-09T13:34:06.343Z,1.10
2023-05-09T13:36:34.297Z,1.13
2023-05-09T13:39:01.359Z,1.25
2023-05-09T13:41:31.084Z,1.10
2023-05-09T13:43:58.208Z,1.13
2023-05-09T13:46:25.225Z,1.40
2023-05-09T13:48:52.250Z,1.15
2023-05-09T13:51:19.602Z,1.15
2023-05-09T13:53:46.681Z,1.13
2023-05-09T13:56:19.780Z,1.00
2023-05-09T13:58:49.818Z,1.50
2023-05-09T14:01:18.961Z,1.00
2023-05-09T14:03:49.253Z,1.25
2023-05-09T14:06:16.322Z,1.15
2023-05-09T14:08:43.227Z,1.10
2023-05-09T14:11:13.251Z,1.17
2023-05-09T14:13:40.500Z,0.90
2023-05-09T14:16:08.126Z,1.10
2023-05-09T14:18:35.394Z,1.10
2023-05-09T14:21:03.335Z,1.10
2023-05-09T14:23:32.310Z,1.10
2023-05-09T14:25:59.508Z,1.25
2023-05-09T14:28:27.089Z,0.90
2023-05-09T14:30:54.664Z,1.10
2023-05-09T14:33:26.905Z,1.48
2023-05-09T14:35:53.753Z,1.10
2023-05-09T14:38:21.373Z,0.90
2023-05-09T14:40:50.729Z,1.20
2023-05-09T14:43:20.644Z,1.40
2023-05-09T14:45:47.632Z,1.08
2023-05-09T14:48:16.219Z,1.38
2023-05-09T14:50:50.165Z,1.00
2023-05-09T14:56:29.468Z,1.50
2023-05-09T15:02:26.026Z,0.88
2023-05-09T15:04:53.223Z,0.90
2023-05-09T15:07:42.526Z,1.05
2023-05-09T15:10:10.065Z,0.90
2023-05-09T15:12:39.702Z,1.17
2023-05-09T15:15:28.176Z,1.00
2023-05-09T15:17:55.059Z,0.90
2023-05-09T15:20:24.694Z,1.08
2023-05-09T15:22:59.132Z,1.13
2023-05-09T15:25:31.253Z,1.10
2023-05-09T15:34:28.953Z,0.90
2023-05-09T15:36:56.104Z,1.70
2023-05-09T15:39:23.208Z,1.17
2023-05-09T15:42:01.588Z,1.17
2023-05-09T15:44:34.520Z,1.38
2023-05-09T15:47:01.668Z,1.15
2023-05-09T15:49:28.628Z,1.02
2023-05-09T15:51:55.958Z,0.90
2023-05-09T15:54:25.632Z,0.50
2023-05-09T15:56:52.798Z,0.80
2023-05-09T15:59:19.963Z,0.70
2023-05-09T16:01:47.299Z,0.52
2023-05-09T16:04:14.412Z,0.52
2023-05-09T16:06:44.203Z,0.60
2023-05-09T16:09:11.691Z,0.47
2023-05-09T16:11:47.695Z,0.70
2023-05-09T16:14:15.100Z,0.43
2023-05-09T16:16:43.270Z,0.50
2023-05-09T16:19:10.136Z,0.40
2023-05-09T16:21:42.173Z,0.43
2023-05-09T16:24:09.225Z,0.65
2023-05-09T16:26:37.019Z,0.40
2023-05-09T16:29:04.121Z,0.55
2023-05-09T16:31:40.183Z,0.45
2023-05-09T16:34:07.495Z,0.70
2023-05-09T16:36:37.320Z,0.60
2023-05-09T16:39:04.240Z,0.55
2023-05-09T16:41:33.802Z,0.52
2023-05-09T16:44:05.382Z,0.75
2023-05-09T16:46:32.349Z,0.57
2023-05-09T16:48:59.226Z,0.55
2023-05-09T16:51:26.207Z,0.47
2023-05-09T16:53:54.292Z,0.45
2023-05-09T16:56:22.874Z,0.40
2023-05-09T16:58:50.036Z,0.52
2023-05-09T17:01:20.045Z,0.40
2023-05-09T17:03:48.243Z,0.43
2023-05-09T17:06:15.428Z,0.47
2023-05-09T17:08:42.641Z,0.35
2023-05-09T17:11:09.943Z,0.50
2023-05-09T17:13:37.025Z,0.40
2023-05-09T17:16:16.558Z,0.40
2023-05-09T17:18:49.816Z,0.30
2023-05-09T17:21:17.317Z,0.32
2023-05-09T17:23:44.277Z,0.40
2023-05-09T17:26:11.440Z,0.25
2023-05-09T17:28:38.279Z,0.20
2023-05-09T17:31:05.232Z,0.30
2023-05-09T17:33:32.206Z,0.20
2023-05-09T17:36:00.396Z,0.22
2023-05-09T17:38:27.474Z,0.30
2023-05-09T17:40:54.787Z,0.30
2023-05-09T17:43:22.566Z,0.40
2023-05-09T17:45:54.719Z,0.20
2023-05-09T17:48:22.792Z,0.30
2023-05-09T17:50:52.678Z,0.20
2023-05-09T17:53:19.743Z,0.20
2023-05-09T17:55:46.593Z,0.20
2023-05-09T17:58:17.496Z,0.40
2023-05-09T18:00:44.759Z,0.40
2023-05-09T18:03:11.848Z,0.35
2023-05-09T18:05:38.972Z,0.30
2023-05-09T18:08:08.642Z,0.40
2023-05-09T18:10:35.393Z,0.40
2023-05-09T18:13:02.151Z,0.35
2023-05-09T18:15:28.957Z,0.40
2023-05-09T18:17:57.770Z,0.47
2023-05-09T18:20:28.137Z,0.40
2023-05-09T18:22:55.282Z,0.28
2023-05-09T18:25:22.304Z,0.30
2023-05-09T18:27:55.275Z,0.35
2023-05-09T18:30:24.481Z,0.30
2023-05-09T18:32:51.413Z,0.40
2023-05-09T18:35:18.256Z,0.30
2023-05-09T18:37:45.281Z,0.40
2023-05-09T18:40:15.954Z,0.50
2023-05-09T18:42:43.279Z,0.47
2023-05-09T18:45:11.510Z,0.40
2023-05-09T18:47:38.920Z,1.08
2023-05-09T18:50:07.114Z,0.40
2023-05-09T18:52:37.551Z,0.40
2023-05-09T18:55:06.026Z,0.30
2023-05-09T18:57:41.935Z,0.60
2023-05-09T19:00:09.226Z,0.50
2023-05-09T19:02:36.072Z,0.40
2023-05-09T19:05:06.494Z,0.50
2023-05-09T19:07:51.828Z,0.60
2023-05-09T19:10:39.399Z,0.40
2023-05-09T19:13:09.694Z,0.65
2023-05-09T19:15:37.243Z,0.50
2023-05-09T19:18:06.015Z,0.60
2023-05-09T19:20:35.783Z,0.60
2023-05-09T19:23:12.597Z,1.00
2023-05-09T19:25:39.902Z,0.70
2023-05-09T19:28:07.109Z,0.80
2023-05-09T19:30:34.378Z,1.00
2023-05-09T19:33:07.470Z,0.88
2023-05-09T19:35:38.517Z,0.70
2023-05-09T19:38:20.819Z,0.75
2023-05-09T19:40:48.017Z,1.10
2023-05-09T19:43:15.156Z,0.93
2023-05-09T19:45:45.354Z,0.82
2023-05-09T19:48:20.010Z,0.60
2023-05-09T19:50:47.144Z,0.50
2023-05-09T19:53:13.989Z,0.70
2023-05-09T19:55:41.344Z,0.60
2023-05-09T19:58:11.781Z,0.70
2023-05-09T20:00:39.121Z,0.80
2023-05-09T20:03:06.409Z,0.60
2023-05-09T20:05:35.896Z,0.60
2023-05-09T20:08:03.151Z,0.90
2023-05-09T20:10:31.168Z,0.70
2023-05-09T20:12:59.441Z,0.70
2023-05-09T20:18:12.741Z,0.60
2023-05-09T20:20:39.786Z,0.80
2023-05-09T20:23:12.784Z,0.95
2023-05-09T20:25:41.210Z,0.70
2023-05-09T20:28:09.346Z,0.70
2023-05-09T20:30:36.494Z,0.60
2023-05-09T20:33:12.300Z,0.70
2023-05-09T20:35:42.823Z,0.93
2023-05-09T20:38:10.569Z,0.70
2023-05-09T20:40:38.114Z,0.70
2023-05-09T20:43:05.119Z,0.80
2023-05-09T20:45:43.079Z,0.90
2023-05-09T20:48:10.826Z,0.70
2023-05-09T20:50:37.901Z,0.90
2023-05-09T20:53:05.335Z,0.80
2023-05-09T20:56:06.006Z,1.20
2023-05-09T21:01:20.471Z,1.20
2023-05-09T21:04:04.274Z,1.10
2023-05-09T21:06:32.056Z,1.20
2023-05-09T21:09:26.925Z,0.90
2023-05-09T21:12:13.562Z,1.30
2023-05-09T21:14:43.435Z,1.45
2023-05-09T21:17:13.606Z,1.38
2023-05-09T21:19:40.741Z,1.52
2023-05-09T21:22:08.202Z,1.40
2023-05-09T21:24:35.357Z,1.30
2023-05-09T21:27:02.411Z,1.73
2023-05-09T21:29:29.389Z,1.52
2023-05-09T21:32:02.076Z,1.38
2023-05-09T21:37:21.564Z,1.75
2023-05-09T21:39:49.213Z,1.33
2023-05-09T21:42:18.821Z,1.73
2023-05-09T21:44:50.180Z,1.27
2023-05-09T21:47:17.321Z,1.52
2023-05-09T21:49:44.539Z,1.45
2023-05-09T21:52:31.833Z,1.50
2023-05-09T21:54:59.294Z,1.25
2023-05-09T21:57:26.318Z,1.40
2023-05-09T22:00:11.673Z,1.55
2023-05-09T22:02:39.004Z,1.60
2023-05-09T22:05:09.315Z,2.20
2023-05-09T22:07:36.460Z,1.92
2023-05-09T22:10:04.138Z,2.08
2023-05-09T22:12:31.906Z,1.40
2023-05-09T22:14:59.175Z,1.50
2023-05-09T22:17:26.119Z,1.20
2023-05-09T22:19:53.180Z,1.23
2023-05-09T22:22:23.323Z,1.00
2023-05-09T22:24:59.674Z,1.05
2023-05-09T22:27:26.739Z,1.10
2023-05-09T22:29:53.924Z,1.65
2023-05-09T22:32:24.216Z,1.10
2023-05-09T22:34:54.402Z,1.33
2023-05-09T22:37:31.046Z,1.42
2023-05-09T22:40:01.211Z,1.55
2023-05-09T22:42:29.496Z,1.70
2023-05-09T22:44:59.384Z,2.08
2023-05-09T22:47:26.283Z,2.15
2023-05-09T22:49:53.251Z,2.53
2023-05-09T22:52:21.464Z,2.45
2023-05-09T22:54:48.485Z,2.92
2023-05-09T22:57:17.827Z,2.88
2023-05-09T22:59:45.090Z,3.30
2023-05-09T23:02:12.717Z,2.90
2023-05-09T23:04:42.034Z,3.22
2023-05-09T23:07:09.000Z,2.10
2023-05-09T23:09:41.115Z,2.97
2023-05-09T23:12:09.868Z,2.45
2023-05-09T23:14:37.002Z,2.65
2023-05-09T23:17:04.154Z,2.72
2023-05-09T23:19:31.121Z,2.03
2023-05-09T23:21:59.004Z,1.73
2023-05-09T23:24:28.133Z,2.33
2023-05-09T23:26:55.212Z,2.28
2023-05-09T23:29:35.626Z,1.83
2023-05-09T23:32:19.907Z,1.55
2023-05-09T23:34:46.872Z,1.67
2023-05-09T23:37:13.818Z,1.73
2023-05-09T23:39:49.423Z,1.40
2023-05-09T23:42:24.972Z,1.42
2023-05-09T23:44:55.189Z,1.75
2023-05-09T23:47:22.046Z,1.42
2023-05-09T23:49:52.836Z,1.15
2023-05-09T23:52:22.321Z,1.40
2023-05-09T23:58:56.037Z,1.27
